sensor_id;sensor_type;location;lat;lon;timestamp;P1;durP1;ratioP1;P2;durP2;ratioP2
249;SDS011;109;19.806;-70.704;2022-10-15T00:00:49;53.67;;;12.13;;
249;SDS011;109;19.806;-70.704;2022-10-15T00:03:16;48.13;;;11.50;;
249;SDS011;109;19.806;-70.704;2022-10-15T00:05:43;56.03;;;10.30;;
249;SDS011;109;19.806;-70.704;2022-10-15T00:08:09;45.27;;;10.77;;
249;SDS011;109;19.806;-70.704;2022-10-15T00:10:37;55.47;;;10.67;;
249;SDS011;109;19.806;-70.704;2022-10-15T00:13:03;43.57;;;11.20;;
249;SDS011;109;19.806;-70.704;2022-10-15T00:15:30;62.40;;;11.30;;
249;SDS011;109;19.806;-70.704;2022-10-15T00:17:57;53.00;;;12.67;;
249;SDS011;109;19.806;-70.704;2022-10-15T00:20:23;56.07;;;13.93;;
249;SDS011;109;19.806;-70.704;2022-10-15T00:22:57;53.97;;;12.07;;
249;SDS011;109;19.806;-70.704;2022-10-15T00:25:45;44.17;;;12.60;;
249;SDS011;109;19.806;-70.704;2022-10-15T00:28:19;42.37;;;12.60;;
249;SDS011;109;19.806;-70.704;2022-10-15T00:31:00;44.07;;;12.47;;
249;SDS011;109;19.806;-70.704;2022-10-15T00:33:37;54.53;;;12.63;;
249;SDS011;109;19.806;-70.704;2022-10-15T00:36:23;54.07;;;12.03;;
249;SDS011;109;19.806;-70.704;2022-10-15T00:38:57;44.50;;;11.20;;
249;SDS011;109;19.806;-70.704;2022-10-15T00:41:40;55.73;;;12.07;;
249;SDS011;109;19.806;-70.704;2022-10-15T00:49:36;49.83;;;11.90;;
249;SDS011;109;19.806;-70.704;2022-10-15T00:52:39;37.13;;;11.83;;
249;SDS011;109;19.806;-70.704;2022-10-15T00:55:38;60.70;;;12.27;;
249;SDS011;109;19.806;-70.704;2022-10-15T00:58:12;50.80;;;12.60;;
249;SDS011;109;19.806;-70.704;2022-10-15T01:01:00;49.17;;;10.50;;
249;SDS011;109;19.806;-70.704;2022-10-15T01:03:27;47.63;;;11.37;;
249;SDS011;109;19.806;-70.704;2022-10-15T01:06:07;57.60;;;11.87;;
249;SDS011;109;19.806;-70.704;2022-10-15T01:08:33;49.67;;;10.80;;
249;SDS011;109;19.806;-70.704;2022-10-15T01:11:17;43.97;;;11.00;;
249;SDS011;109;19.806;-70.704;2022-10-15T01:16:59;47.83;;;11.83;;
249;SDS011;109;19.806;-70.704;2022-10-15T01:26:45;48.40;;;10.83;;
249;SDS011;109;19.806;-70.704;2022-10-15T01:32:52;56.90;;;12.43;;
249;SDS011;109;19.806;-70.704;2022-10-15T01:41:48;38.97;;;9.77;;
249;SDS011;109;19.806;-70.704;2022-10-15T01:44:34;55.67;;;11.73;;
249;SDS011;109;19.806;-70.704;2022-10-15T01:47:34;48.80;;;11.50;;
249;SDS011;109;19.806;-70.704;2022-10-15T01:50:21;47.77;;;11.00;;
249;SDS011;109;19.806;-70.704;2022-10-15T01:52:58;48.47;;;11.27;;
249;SDS011;109;19.806;-70.704;2022-10-15T01:55:40;59.83;;;10.77;;
249;SDS011;109;19.806;-70.704;2022-10-15T01:58:10;48.83;;;9.70;;
249;SDS011;109;19.806;-70.704;2022-10-15T02:00:52;49.30;;;11.50;;
249;SDS011;109;19.806;-70.704;2022-10-15T02:03:20;53.37;;;11.33;;
249;SDS011;109;19.806;-70.704;2022-10-15T02:06:05;63.67;;;11.43;;
249;SDS011;109;19.806;-70.704;2022-10-15T02:08:44;66.13;;;10.60;;
249;SDS011;109;19.806;-70.704;2022-10-15T02:11:40;40.97;;;10.90;;
249;SDS011;109;19.806;-70.704;2022-10-15T02:14:19;44.90;;;11.77;;
249;SDS011;109;19.806;-70.704;2022-10-15T02:17:23;50.27;;;10.60;;
249;SDS011;109;19.806;-70.704;2022-10-15T02:20:13;45.30;;;10.23;;
249;SDS011;109;19.806;-70.704;2022-10-15T02:23:06;51.43;;;10.87;;
249;SDS011;109;19.806;-70.704;2022-10-15T02:26:04;46.27;;;11.57;;
249;SDS011;109;19.806;-70.704;2022-10-15T02:28:42;40.63;;;10.00;;
249;SDS011;109;19.806;-70.704;2022-10-15T02:31:25;47.63;;;12.33;;
249;SDS011;109;19.806;-70.704;2022-10-15T02:34:06;53.70;;;13.20;;
249;SDS011;109;19.806;-70.704;2022-10-15T02:36:49;48.23;;;10.43;;
249;SDS011;109;19.806;-70.704;2022-10-15T02:39:19;48.93;;;10.80;;
249;SDS011;109;19.806;-70.704;2022-10-15T02:42:02;50.30;;;11.87;;
249;SDS011;109;19.806;-70.704;2022-10-15T02:44:30;42.23;;;10.90;;
249;SDS011;109;19.806;-70.704;2022-10-15T02:47:10;50.80;;;11.17;;
249;SDS011;109;19.806;-70.704;2022-10-15T02:49:38;47.47;;;11.60;;
249;SDS011;109;19.806;-70.704;2022-10-15T02:52:18;34.80;;;9.23;;
249;SDS011;109;19.806;-70.704;2022-10-15T02:54:45;62.50;;;11.70;;
249;SDS011;109;19.806;-70.704;2022-10-15T02:57:26;62.20;;;12.57;;
249;SDS011;109;19.806;-70.704;2022-10-15T02:59:52;55.03;;;11.90;;
249;SDS011;109;19.806;-70.704;2022-10-15T03:02:40;54.50;;;9.90;;
249;SDS011;109;19.806;-70.704;2022-10-15T03:05:20;50.17;;;10.90;;
249;SDS011;109;19.806;-70.704;2022-10-15T03:07:47;58.73;;;11.17;;
249;SDS011;109;19.806;-70.704;2022-10-15T03:10:27;63.63;;;12.90;;
249;SDS011;109;19.806;-70.704;2022-10-15T03:12:53;39.50;;;10.40;;
249;SDS011;109;19.806;-70.704;2022-10-15T03:15:43;73.27;;;11.60;;
249;SDS011;109;19.806;-70.704;2022-10-15T03:18:16;48.70;;;14.30;;
249;SDS011;109;19.806;-70.704;2022-10-15T03:20:57;72.53;;;16.60;;
249;SDS011;109;19.806;-70.704;2022-10-15T03:23:24;56.17;;;14.40;;
249;SDS011;109;19.806;-70.704;2022-10-15T03:26:20;49.73;;;13.70;;
249;SDS011;109;19.806;-70.704;2022-10-15T03:28:54;54.30;;;13.53;;
249;SDS011;109;19.806;-70.704;2022-10-15T03:31:42;65.70;;;14.50;;
249;SDS011;109;19.806;-70.704;2022-10-15T03:34:15;56.60;;;12.70;;
249;SDS011;109;19.806;-70.704;2022-10-15T03:36:55;51.27;;;10.87;;
249;SDS011;109;19.806;-70.704;2022-10-15T03:39:22;53.20;;;12.30;;
249;SDS011;109;19.806;-70.704;2022-10-15T03:42:04;55.60;;;10.50;;
249;SDS011;109;19.806;-70.704;2022-10-15T03:44:37;48.97;;;12.00;;
249;SDS011;109;19.806;-70.704;2022-10-15T03:47:19;47.40;;;12.33;;
249;SDS011;109;19.806;-70.704;2022-10-15T03:49:59;45.37;;;10.20;;
249;SDS011;109;19.806;-70.704;2022-10-15T03:52:32;58.37;;;14.20;;
249;SDS011;109;19.806;-70.704;2022-10-15T03:55:12;51.70;;;13.80;;
249;SDS011;109;19.806;-70.704;2022-10-15T03:57:41;56.63;;;11.40;;
249;SDS011;109;19.806;-70.704;2022-10-15T04:00:21;55.27;;;10.67;;
249;SDS011;109;19.806;-70.704;2022-10-15T04:02:48;57.03;;;10.23;;
249;SDS011;109;19.806;-70.704;2022-10-15T04:05:29;40.03;;;9.57;;
249;SDS011;109;19.806;-70.704;2022-10-15T04:08:01;55.10;;;11.87;;
249;SDS011;109;19.806;-70.704;2022-10-15T04:10:42;55.93;;;11.60;;
249;SDS011;109;19.806;-70.704;2022-10-15T04:13:09;58.33;;;12.87;;
249;SDS011;109;19.806;-70.704;2022-10-15T04:15:49;45.80;;;10.50;;
249;SDS011;109;19.806;-70.704;2022-10-15T04:18:16;44.23;;;9.77;;
249;SDS011;109;19.806;-70.704;2022-10-15T04:20:58;50.00;;;11.10;;
249;SDS011;109;19.806;-70.704;2022-10-15T04:23:25;54.60;;;10.90;;
249;SDS011;109;19.806;-70.704;2022-10-15T04:26:31;48.87;;;10.43;;
249;SDS011;109;19.806;-70.704;2022-10-15T04:29:05;42.47;;;10.53;;
249;SDS011;109;19.806;-70.704;2022-10-15T04:31:45;54.00;;;9.90;;
249;SDS011;109;19.806;-70.704;2022-10-15T04:34:11;43.67;;;10.20;;
249;SDS011;109;19.806;-70.704;2022-10-15T04:36:52;54.50;;;10.93;;
249;SDS011;109;19.806;-70.704;2022-10-15T04:39:20;41.40;;;10.17;;
249;SDS011;109;19.806;-70.704;2022-10-15T04:42:07;46.77;;;10.20;;
249;SDS011;109;19.806;-70.704;2022-10-15T04:44:40;49.20;;;10.20;;
249;SDS011;109;19.806;-70.704;2022-10-15T04:47:20;41.43;;;10.50;;
249;SDS011;109;19.806;-70.704;2022-10-15T04:49:51;53.03;;;11.23;;
249;SDS011;109;19.806;-70.704;2022-10-15T04:52:50;49.40;;;10.10;;
249;SDS011;109;19.806;-70.704;2022-10-15T04:55:34;44.83;;;10.50;;
249;SDS011;109;19.806;-70.704;2022-10-15T04:58:07;45.00;;;9.73;;
249;SDS011;109;19.806;-70.704;2022-10-15T05:00:47;56.53;;;12.13;;
249;SDS011;109;19.806;-70.704;2022-10-15T05:03:32;74.13;;;12.07;;
249;SDS011;109;19.806;-70.704;2022-10-15T05:06:17;58.60;;;11.47;;
249;SDS011;109;19.806;-70.704;2022-10-15T05:08:56;46.33;;;10.00;;
249;SDS011;109;19.806;-70.704;2022-10-15T05:11:40;44.87;;;10.93;;
249;SDS011;109;19.806;-70.704;2022-10-15T05:14:18;43.93;;;10.90;;
249;SDS011;109;19.806;-70.704;2022-10-15T05:17:08;49.67;;;11.10;;
249;SDS011;109;19.806;-70.704;2022-10-15T05:19:42;52.70;;;11.00;;
249;SDS011;109;19.806;-70.704;2022-10-15T05:22:32;39.97;;;10.67;;
249;SDS011;109;19.806;-70.704;2022-10-15T05:25:12;45.67;;;11.23;;
249;SDS011;109;19.806;-70.704;2022-10-15T05:27:40;52.37;;;10.70;;
249;SDS011;109;19.806;-70.704;2022-10-15T05:30:21;40.27;;;10.90;;
249;SDS011;109;19.806;-70.704;2022-10-15T05:32:51;50.20;;;10.40;;
249;SDS011;109;19.806;-70.704;2022-10-15T05:35:31;37.13;;;9.63;;
249;SDS011;109;19.806;-70.704;2022-10-15T05:37:59;42.83;;;11.87;;
249;SDS011;109;19.806;-70.704;2022-10-15T05:40:39;46.77;;;10.67;;
249;SDS011;109;19.806;-70.704;2022-10-15T05:43:19;46.87;;;10.13;;
249;SDS011;109;19.806;-70.704;2022-10-15T05:46:00;43.07;;;10.20;;
249;SDS011;109;19.806;-70.704;2022-10-15T05:48:27;42.87;;;10.00;;
249;SDS011;109;19.806;-70.704;2022-10-15T05:51:09;32.67;;;9.93;;
249;SDS011;109;19.806;-70.704;2022-10-15T05:53:46;42.33;;;9.33;;
249;SDS011;109;19.806;-70.704;2022-10-15T05:56:25;33.77;;;8.07;;
249;SDS011;109;19.806;-70.704;2022-10-15T05:58:52;52.30;;;10.77;;
249;SDS011;109;19.806;-70.704;2022-10-15T06:01:34;51.13;;;9.37;;
249;SDS011;109;19.806;-70.704;2022-10-15T06:04:02;44.07;;;9.70;;
249;SDS011;109;19.806;-70.704;2022-10-15T06:06:42;56.93;;;11.03;;
249;SDS011;109;19.806;-70.704;2022-10-15T06:09:09;45.47;;;9.17;;
249;SDS011;109;19.806;-70.704;2022-10-15T06:11:48;38.60;;;9.30;;
249;SDS011;109;19.806;-70.704;2022-10-15T06:14:17;38.33;;;10.47;;
249;SDS011;109;19.806;-70.704;2022-10-15T06:17:04;51.57;;;11.43;;
249;SDS011;109;19.806;-70.704;2022-10-15T06:19:40;39.63;;;9.70;;
249;SDS011;109;19.806;-70.704;2022-10-15T06:22:29;36.50;;;8.70;;
249;SDS011;109;19.806;-70.704;2022-10-15T06:25:09;38.93;;;9.60;;
249;SDS011;109;19.806;-70.704;2022-10-15T06:27:35;39.43;;;9.43;;
249;SDS011;109;19.806;-70.704;2022-10-15T06:30:15;42.10;;;9.53;;
249;SDS011;109;19.806;-70.704;2022-10-15T06:32:48;42.60;;;11.30;;
249;SDS011;109;19.806;-70.704;2022-10-15T06:35:43;34.37;;;9.40;;
249;SDS011;109;19.806;-70.704;2022-10-15T06:38:16;35.73;;;8.40;;
249;SDS011;109;19.806;-70.704;2022-10-15T06:40:57;43.30;;;11.80;;
249;SDS011;109;19.806;-70.704;2022-10-15T06:43:31;31.13;;;8.73;;
249;SDS011;109;19.806;-70.704;2022-10-15T06:46:10;33.07;;;9.63;;
249;SDS011;109;19.806;-70.704;2022-10-15T06:48:36;40.43;;;10.50;;
249;SDS011;109;19.806;-70.704;2022-10-15T06:51:16;33.13;;;9.43;;
249;SDS011;109;19.806;-70.704;2022-10-15T06:53:48;47.17;;;10.40;;
249;SDS011;109;19.806;-70.704;2022-10-15T06:56:29;43.97;;;9.70;;
249;SDS011;109;19.806;-70.704;2022-10-15T06:58:55;48.27;;;12.17;;
249;SDS011;109;19.806;-70.704;2022-10-15T07:01:35;50.67;;;10.27;;
249;SDS011;109;19.806;-70.704;2022-10-15T07:04:01;37.17;;;9.60;;
249;SDS011;109;19.806;-70.704;2022-10-15T07:06:41;39.03;;;9.80;;
249;SDS011;109;19.806;-70.704;2022-10-15T07:09:07;47.70;;;10.73;;
249;SDS011;109;19.806;-70.704;2022-10-15T07:11:47;43.60;;;9.07;;
249;SDS011;109;19.806;-70.704;2022-10-15T07:14:13;42.33;;;8.67;;
249;SDS011;109;19.806;-70.704;2022-10-15T07:16:53;35.83;;;8.90;;
249;SDS011;109;19.806;-70.704;2022-10-15T07:19:21;35.97;;;9.00;;
249;SDS011;109;19.806;-70.704;2022-10-15T07:22:01;47.80;;;10.07;;
249;SDS011;109;19.806;-70.704;2022-10-15T07:24:27;43.10;;;9.90;;
249;SDS011;109;19.806;-70.704;2022-10-15T07:27:13;38.80;;;9.90;;
249;SDS011;109;19.806;-70.704;2022-10-15T07:29:56;41.37;;;10.70;;
249;SDS011;109;19.806;-70.704;2022-10-15T07:32:36;43.73;;;9.80;;
249;SDS011;109;19.806;-70.704;2022-10-15T07:35:16;36.80;;;8.53;;
249;SDS011;109;19.806;-70.704;2022-10-15T07:37:42;35.10;;;9.63;;
249;SDS011;109;19.806;-70.704;2022-10-15T07:40:22;43.27;;;10.70;;
249;SDS011;109;19.806;-70.704;2022-10-15T07:42:52;32.73;;;8.83;;
249;SDS011;109;19.806;-70.704;2022-10-15T07:45:35;35.10;;;8.83;;
249;SDS011;109;19.806;-70.704;2022-10-15T07:48:02;47.67;;;9.13;;
249;SDS011;109;19.806;-70.704;2022-10-15T07:50:42;30.23;;;7.57;;
249;SDS011;109;19.806;-70.704;2022-10-15T07:53:08;49.83;;;11.00;;
249;SDS011;109;19.806;-70.704;2022-10-15T07:56:04;45.13;;;10.37;;
249;SDS011;109;19.806;-70.704;2022-10-15T07:58:39;58.13;;;8.93;;
249;SDS011;109;19.806;-70.704;2022-10-15T08:01:23;43.50;;;11.13;;
249;SDS011;109;19.806;-70.704;2022-10-15T08:03:49;41.27;;;9.03;;
249;SDS011;109;19.806;-70.704;2022-10-15T08:06:30;44.70;;;10.00;;
249;SDS011;109;19.806;-70.704;2022-10-15T08:08:57;40.10;;;10.07;;
249;SDS011;109;19.806;-70.704;2022-10-15T08:11:37;43.87;;;9.73;;
249;SDS011;109;19.806;-70.704;2022-10-15T08:14:11;66.33;;;10.20;;
249;SDS011;109;19.806;-70.704;2022-10-15T08:16:51;37.30;;;9.80;;
249;SDS011;109;19.806;-70.704;2022-10-15T08:19:17;35.60;;;8.83;;
249;SDS011;109;19.806;-70.704;2022-10-15T08:21:57;37.43;;;9.63;;
249;SDS011;109;19.806;-70.704;2022-10-15T08:24:24;41.13;;;8.63;;
249;SDS011;109;19.806;-70.704;2022-10-15T08:27:12;43.37;;;8.80;;
249;SDS011;109;19.806;-70.704;2022-10-15T08:29:45;43.77;;;9.77;;
249;SDS011;109;19.806;-70.704;2022-10-15T08:32:25;50.77;;;9.47;;
249;SDS011;109;19.806;-70.704;2022-10-15T08:34:51;39.50;;;9.50;;
249;SDS011;109;19.806;-70.704;2022-10-15T08:37:31;46.63;;;10.03;;
249;SDS011;109;19.806;-70.704;2022-10-15T08:40:11;36.97;;;9.47;;
249;SDS011;109;19.806;-70.704;2022-10-15T08:42:40;37.90;;;9.50;;
249;SDS011;109;19.806;-70.704;2022-10-15T08:45:23;38.53;;;10.00;;
249;SDS011;109;19.806;-70.704;2022-10-15T08:48:07;32.73;;;10.10;;
249;SDS011;109;19.806;-70.704;2022-10-15T08:51:10;57.97;;;9.70;;
249;SDS011;109;19.806;-70.704;2022-10-15T08:53:58;39.17;;;11.13;;
249;SDS011;109;19.806;-70.704;2022-10-15T08:56:53;41.30;;;9.50;;
249;SDS011;109;19.806;-70.704;2022-10-15T08:59:41;33.10;;;10.10;;
249;SDS011;109;19.806;-70.704;2022-10-15T09:08:40;35.40;;;9.20;;
249;SDS011;109;19.806;-70.704;2022-10-15T09:14:15;44.97;;;10.13;;
249;SDS011;109;19.806;-70.704;2022-10-15T09:16:58;35.30;;;10.53;;
249;SDS011;109;19.806;-70.704;2022-10-15T09:19:37;39.70;;;10.17;;
249;SDS011;109;19.806;-70.704;2022-10-15T09:22:23;24.90;;;9.13;;
249;SDS011;109;19.806;-70.704;2022-10-15T09:25:15;43.83;;;10.90;;
249;SDS011;109;19.806;-70.704;2022-10-15T09:27:50;36.67;;;8.93;;
249;SDS011;109;19.806;-70.704;2022-10-15T09:30:32;31.73;;;9.40;;
249;SDS011;109;19.806;-70.704;2022-10-15T09:35:59;41.47;;;10.50;;
249;SDS011;109;19.806;-70.704;2022-10-15T09:41:53;39.90;;;10.17;;
249;SDS011;109;19.806;-70.704;2022-10-15T09:44:30;38.90;;;9.27;;
249;SDS011;109;19.806;-70.704;2022-10-15T09:47:28;39.70;;;10.70;;
249;SDS011;109;19.806;-70.704;2022-10-15T09:50:11;39.87;;;10.57;;
249;SDS011;109;19.806;-70.704;2022-10-15T09:58:49;40.20;;;10.80;;
249;SDS011;109;19.806;-70.704;2022-10-15T10:01:34;35.70;;;8.80;;
249;SDS011;109;19.806;-70.704;2022-10-15T10:07:00;38.10;;;9.00;;
249;SDS011;109;19.806;-70.704;2022-10-15T10:09:59;42.50;;;9.70;;
249;SDS011;109;19.806;-70.704;2022-10-15T10:12:42;41.60;;;9.10;;
249;SDS011;109;19.806;-70.704;2022-10-15T10:15:36;49.17;;;10.20;;
249;SDS011;109;19.806;-70.704;2022-10-15T10:18:17;43.23;;;10.03;;
249;SDS011;109;19.806;-70.704;2022-10-15T10:23:35;47.30;;;10.17;;
249;SDS011;109;19.806;-70.704;2022-10-15T10:26:06;42.37;;;11.40;;
249;SDS011;109;19.806;-70.704;2022-10-15T10:28:51;36.37;;;9.30;;
249;SDS011;109;19.806;-70.704;2022-10-15T10:31:27;46.07;;;10.50;;
249;SDS011;109;19.806;-70.704;2022-10-15T10:33:59;36.80;;;10.10;;
249;SDS011;109;19.806;-70.704;2022-10-15T10:36:28;42.50;;;10.20;;
249;SDS011;109;19.806;-70.704;2022-10-15T10:49:46;47.30;;;10.70;;
249;SDS011;109;19.806;-70.704;2022-10-15T10:52:27;42.00;;;10.50;;
249;SDS011;109;19.806;-70.704;2022-10-15T10:55:05;50.27;;;10.53;;
249;SDS011;109;19.806;-70.704;2022-10-15T11:00:45;46.87;;;10.37;;
249;SDS011;109;19.806;-70.704;2022-10-15T11:06:09;49.63;;;12.03;;
249;SDS011;109;19.806;-70.704;2022-10-15T11:17:23;47.00;;;12.50;;
249;SDS011;109;19.806;-70.704;2022-10-15T11:19:57;47.80;;;13.93;;
249;SDS011;109;19.806;-70.704;2022-10-15T11:27:52;40.40;;;14.20;;
249;SDS011;109;19.806;-70.704;2022-10-15T11:33:30;69.50;;;14.50;;
249;SDS011;109;19.806;-70.704;2022-10-15T11:41:36;42.90;;;14.97;;
249;SDS011;109;19.806;-70.704;2022-10-15T11:46:56;63.30;;;23.50;;
249;SDS011;109;19.806;-70.704;2022-10-15T11:50:08;77.97;;;32.17;;
249;SDS011;109;19.806;-70.704;2022-10-15T11:55:33;68.57;;;25.00;;
249;SDS011;109;19.806;-70.704;2022-10-15T11:58:30;51.57;;;17.90;;
249;SDS011;109;19.806;-70.704;2022-10-15T12:01:05;51.77;;;15.77;;
249;SDS011;109;19.806;-70.704;2022-10-15T12:03:46;48.37;;;15.17;;
249;SDS011;109;19.806;-70.704;2022-10-15T12:06:17;52.00;;;14.63;;
249;SDS011;109;19.806;-70.704;2022-10-15T12:08:47;79.43;;;15.57;;
249;SDS011;109;19.806;-70.704;2022-10-15T12:11:29;57.77;;;15.63;;
249;SDS011;109;19.806;-70.704;2022-10-15T12:14:40;46.60;;;14.40;;
249;SDS011;109;19.806;-70.704;2022-10-15T12:20:08;44.93;;;14.47;;
249;SDS011;109;19.806;-70.704;2022-10-15T12:22:52;40.77;;;13.70;;
249;SDS011;109;19.806;-70.704;2022-10-15T12:30:40;51.40;;;13.40;;
249;SDS011;109;19.806;-70.704;2022-10-15T12:33:22;59.20;;;13.23;;
249;SDS011;109;19.806;-70.704;2022-10-15T12:36:23;57.83;;;13.20;;
249;SDS011;109;19.806;-70.704;2022-10-15T12:44:19;49.27;;;12.37;;
249;SDS011;109;19.806;-70.704;2022-10-15T12:46:50;56.87;;;11.70;;
249;SDS011;109;19.806;-70.704;2022-10-15T12:51:57;60.23;;;13.93;;
249;SDS011;109;19.806;-70.704;2022-10-15T12:54:44;78.47;;;13.67;;
249;SDS011;109;19.806;-70.704;2022-10-15T12:59:56;58.93;;;15.23;;
249;SDS011;109;19.806;-70.704;2022-10-15T13:02:38;52.90;;;14.37;;
249;SDS011;109;19.806;-70.704;2022-10-15T13:05:23;52.67;;;13.33;;
249;SDS011;109;19.806;-70.704;2022-10-15T13:07:53;52.20;;;13.00;;
249;SDS011;109;19.806;-70.704;2022-10-15T13:10:23;60.80;;;13.57;;
249;SDS011;109;19.806;-70.704;2022-10-15T13:12:58;62.70;;;12.13;;
249;SDS011;109;19.806;-70.704;2022-10-15T13:15:28;48.07;;;13.03;;
249;SDS011;109;19.806;-70.704;2022-10-15T13:17:58;49.60;;;13.00;;
249;SDS011;109;19.806;-70.704;2022-10-15T13:20:33;57.37;;;11.97;;
249;SDS011;109;19.806;-70.704;2022-10-15T13:25:50;54.03;;;11.50;;
249;SDS011;109;19.806;-70.704;2022-10-15T13:31:05;56.37;;;12.40;;
249;SDS011;109;19.806;-70.704;2022-10-15T13:33:49;46.50;;;11.43;;
249;SDS011;109;19.806;-70.704;2022-10-15T13:36:22;51.80;;;11.33;;
249;SDS011;109;19.806;-70.704;2022-10-15T13:38:57;38.27;;;10.87;;
249;SDS011;109;19.806;-70.704;2022-10-15T13:41:32;55.47;;;12.13;;
249;SDS011;109;19.806;-70.704;2022-10-15T13:44:01;57.10;;;12.80;;
249;SDS011;109;19.806;-70.704;2022-10-15T13:46:30;49.10;;;11.80;;
249;SDS011;109;19.806;-70.704;2022-10-15T13:49:02;39.97;;;12.00;;
249;SDS011;109;19.806;-70.704;2022-10-15T13:51:42;55.27;;;13.30;;
249;SDS011;109;19.806;-70.704;2022-10-15T13:54:13;77.53;;;15.80;;
249;SDS011;109;19.806;-70.704;2022-10-15T13:57:02;100.63;;;17.60;;
249;SDS011;109;19.806;-70.704;2022-10-15T13:59:29;55.10;;;12.53;;
249;SDS011;109;19.806;-70.704;2022-10-15T14:01:57;55.70;;;12.77;;
249;SDS011;109;19.806;-70.704;2022-10-15T14:04:30;46.17;;;12.80;;
249;SDS011;109;19.806;-70.704;2022-10-15T14:07:01;57.70;;;14.40;;
249;SDS011;109;19.806;-70.704;2022-10-15T14:09:45;56.90;;;13.47;;
249;SDS011;109;19.806;-70.704;2022-10-15T14:12:13;59.90;;;15.23;;
249;SDS011;109;19.806;-70.704;2022-10-15T14:14:43;58.63;;;14.03;;
249;SDS011;109;19.806;-70.704;2022-10-15T14:17:20;63.67;;;12.60;;
249;SDS011;109;19.806;-70.704;2022-10-15T14:19:49;46.70;;;12.77;;
249;SDS011;109;19.806;-70.704;2022-10-15T14:22:20;55.47;;;12.97;;
249;SDS011;109;19.806;-70.704;2022-10-15T14:24:52;47.23;;;12.00;;
249;SDS011;109;19.806;-70.704;2022-10-15T14:27:21;50.27;;;11.13;;
249;SDS011;109;19.806;-70.704;2022-10-15T14:29:50;56.60;;;11.27;;
249;SDS011;109;19.806;-70.704;2022-10-15T14:32:27;57.93;;;11.43;;
249;SDS011;109;19.806;-70.704;2022-10-15T14:40:30;52.70;;;10.97;;
249;SDS011;109;19.806;-70.704;2022-10-15T14:43:01;52.20;;;11.57;;
249;SDS011;109;19.806;-70.704;2022-10-15T14:45:31;58.37;;;10.47;;
249;SDS011;109;19.806;-70.704;2022-10-15T14:48:08;63.33;;;10.33;;
249;SDS011;109;19.806;-70.704;2022-10-15T14:50:43;55.00;;;11.00;;
249;SDS011;109;19.806;-70.704;2022-10-15T14:53:14;52.87;;;9.97;;
249;SDS011;109;19.806;-70.704;2022-10-15T14:55:51;48.90;;;11.70;;
249;SDS011;109;19.806;-70.704;2022-10-15T14:58:25;59.63;;;10.93;;
249;SDS011;109;19.806;-70.704;2022-10-15T15:00:55;55.33;;;10.17;;
249;SDS011;109;19.806;-70.704;2022-10-15T15:03:28;56.83;;;11.00;;
249;SDS011;109;19.806;-70.704;2022-10-15T15:06:02;52.43;;;10.60;;
249;SDS011;109;19.806;-70.704;2022-10-15T15:08:29;52.47;;;10.57;;
249;SDS011;109;19.806;-70.704;2022-10-15T15:10:56;54.87;;;11.80;;
249;SDS011;109;19.806;-70.704;2022-10-15T15:13:26;68.20;;;12.07;;
249;SDS011;109;19.806;-70.704;2022-10-15T15:15:54;57.37;;;11.30;;
249;SDS011;109;19.806;-70.704;2022-10-15T15:18:21;54.93;;;11.00;;
249;SDS011;109;19.806;-70.704;2022-10-15T15:20:48;54.87;;;11.40;;
249;SDS011;109;19.806;-70.704;2022-10-15T15:23:23;49.87;;;10.43;;
249;SDS011;109;19.806;-70.704;2022-10-15T15:25:52;61.07;;;11.10;;
249;SDS011;109;19.806;-70.704;2022-10-15T15:28:21;68.30;;;10.60;;
249;SDS011;109;19.806;-70.704;2022-10-15T15:30:50;67.17;;;11.67;;
249;SDS011;109;19.806;-70.704;2022-10-15T15:33:24;56.43;;;11.17;;
249;SDS011;109;19.806;-70.704;2022-10-15T15:36:12;67.80;;;14.50;;
249;SDS011;109;19.806;-70.704;2022-10-15T15:38:39;54.93;;;12.30;;
249;SDS011;109;19.806;-70.704;2022-10-15T15:43:43;67.33;;;12.33;;
249;SDS011;109;19.806;-70.704;2022-10-15T15:46:10;60.90;;;12.63;;
249;SDS011;109;19.806;-70.704;2022-10-15T15:48:37;58.27;;;11.73;;
249;SDS011;109;19.806;-70.704;2022-10-15T15:51:05;45.97;;;10.30;;
249;SDS011;109;19.806;-70.704;2022-10-15T15:53:45;54.13;;;10.00;;
249;SDS011;109;19.806;-70.704;2022-10-15T15:56:12;74.30;;;12.20;;
249;SDS011;109;19.806;-70.704;2022-10-15T15:58:39;63.23;;;10.67;;
249;SDS011;109;19.806;-70.704;2022-10-15T16:01:05;61.97;;;10.23;;
249;SDS011;109;19.806;-70.704;2022-10-15T16:03:32;67.40;;;13.17;;
249;SDS011;109;19.806;-70.704;2022-10-15T16:05:58;42.03;;;10.67;;
249;SDS011;109;19.806;-70.704;2022-10-15T16:08:25;59.87;;;9.07;;
249;SDS011;109;19.806;-70.704;2022-10-15T16:10:51;46.57;;;9.27;;
249;SDS011;109;19.806;-70.704;2022-10-15T16:13:17;47.83;;;9.80;;
249;SDS011;109;19.806;-70.704;2022-10-15T16:15:44;56.97;;;10.17;;
249;SDS011;109;19.806;-70.704;2022-10-15T16:18:10;48.23;;;10.13;;
249;SDS011;109;19.806;-70.704;2022-10-15T16:20:37;51.17;;;9.53;;
249;SDS011;109;19.806;-70.704;2022-10-15T16:23:06;53.43;;;9.50;;
249;SDS011;109;19.806;-70.704;2022-10-15T16:25:33;51.33;;;9.00;;
249;SDS011;109;19.806;-70.704;2022-10-15T16:27:59;46.13;;;8.53;;
249;SDS011;109;19.806;-70.704;2022-10-15T16:30:26;51.50;;;9.27;;
249;SDS011;109;19.806;-70.704;2022-10-15T16:32:53;35.17;;;8.53;;
249;SDS011;109;19.806;-70.704;2022-10-15T16:35:20;43.00;;;8.63;;
249;SDS011;109;19.806;-70.704;2022-10-15T16:37:46;46.00;;;9.30;;
249;SDS011;109;19.806;-70.704;2022-10-15T16:40:13;47.33;;;9.00;;
249;SDS011;109;19.806;-70.704;2022-10-15T16:42:40;41.90;;;8.87;;
249;SDS011;109;19.806;-70.704;2022-10-15T16:45:07;48.80;;;10.03;;
249;SDS011;109;19.806;-70.704;2022-10-15T16:47:34;49.37;;;8.40;;
249;SDS011;109;19.806;-70.704;2022-10-15T16:50:01;48.97;;;8.83;;
249;SDS011;109;19.806;-70.704;2022-10-15T16:52:28;48.30;;;8.40;;
249;SDS011;109;19.806;-70.704;2022-10-15T16:54:55;63.93;;;9.30;;
249;SDS011;109;19.806;-70.704;2022-10-15T16:57:21;59.30;;;9.13;;
249;SDS011;109;19.806;-70.704;2022-10-15T16:59:48;44.23;;;9.33;;
249;SDS011;109;19.806;-70.704;2022-10-15T17:02:14;43.10;;;10.47;;
249;SDS011;109;19.806;-70.704;2022-10-15T17:04:40;46.20;;;8.60;;
249;SDS011;109;19.806;-70.704;2022-10-15T17:07:07;49.37;;;8.37;;
249;SDS011;109;19.806;-70.704;2022-10-15T17:09:33;37.77;;;6.97;;
249;SDS011;109;19.806;-70.704;2022-10-15T17:12:00;37.23;;;8.30;;
249;SDS011;109;19.806;-70.704;2022-10-15T17:14:26;32.50;;;6.77;;
249;SDS011;109;19.806;-70.704;2022-10-15T17:16:53;43.67;;;7.77;;
249;SDS011;109;19.806;-70.704;2022-10-15T17:19:20;60.77;;;9.03;;
249;SDS011;109;19.806;-70.704;2022-10-15T17:21:50;40.03;;;8.37;;
249;SDS011;109;19.806;-70.704;2022-10-15T17:24:17;41.93;;;7.93;;
249;SDS011;109;19.806;-70.704;2022-10-15T17:26:44;41.03;;;7.53;;
249;SDS011;109;19.806;-70.704;2022-10-15T17:29:13;43.77;;;7.90;;
249;SDS011;109;19.806;-70.704;2022-10-15T17:31:47;42.33;;;8.10;;
249;SDS011;109;19.806;-70.704;2022-10-15T17:34:15;42.40;;;8.20;;
249;SDS011;109;19.806;-70.704;2022-10-15T17:36:43;47.40;;;8.77;;
249;SDS011;109;19.806;-70.704;2022-10-15T17:39:14;39.90;;;8.10;;
249;SDS011;109;19.806;-70.704;2022-10-15T17:41:42;37.20;;;7.90;;
249;SDS011;109;19.806;-70.704;2022-10-15T17:44:10;47.60;;;8.73;;
249;SDS011;109;19.806;-70.704;2022-10-15T17:46:36;47.00;;;9.30;;
249;SDS011;109;19.806;-70.704;2022-10-15T17:49:03;51.27;;;11.33;;
249;SDS011;109;19.806;-70.704;2022-10-15T17:51:31;57.10;;;10.10;;